Time;durP1;ratioP1;P1;durP2;ratioP2;P2;SDS_P1;SDS_P2;PMS_P1;PMS_P2;Temp;Humidity;BMP_temperature;BMP_pressure;BME280_temperature;BME280_humidity;BME280_pressure;Samples;Min_cycle;Max_cycle;Signal;HPM_P1;HPM_P2
2023/04/13 00:01:55;;;;;;;;;;;;;;;7.73;48.61;95535.69;5054920;28;19921;-66
2023/04/13 00:04:22;;;;;;;;;;;;;;;7.62;49.49;95535.31;5054839;28;19921;-66
2023/04/13 00:06:51;;;;;;;;;;;;;;;7.40;50.37;95544.84;5054694;28;19928;-66
2023/04/13 00:09:21;;;;;;;;;;;;;;;7.30;50.96;95538.34;5054666;28;19928;-66
2023/04/13 00:11:48;;;;;;;;;;;;;;;7.24;50.73;95549.00;5054837;28;19924;-66
2023/04/13 00:14:17;;;;;;;;;;;;;;;7.18;50.56;95540.56;5054359;28;19924;-66
2023/04/13 00:16:45;;;;;;;;;;;;;;;7.10;50.85;95532.19;5054708;28;19920;-66
2023/04/13 00:19:14;;;;;;;;;;;;;;;6.89;51.76;95544.31;5054746;28;19990;-66
2023/04/13 00:21:41;;;;;;;;;;;;;;;6.75;52.66;95543.09;5054712;28;19974;-66
2023/04/13 00:24:08;;;;;;;;;;;;;;;6.69;53.33;95545.94;5054496;28;19924;-66
2023/04/13 00:26:34;;;;;;;;;;;;;;;6.57;53.95;95550.66;5054333;28;19921;-66
2023/04/13 00:29:01;;;;;;;;;;;;;;;6.38;54.63;95555.72;5054379;28;20020;-66
2023/04/13 00:31:28;;;;;;;;;;;;;;;6.29;54.64;95564.69;5054296;28;19924;-66
2023/04/13 00:33:55;;;;;;;;;;;;;;;6.24;55.18;95566.63;5054270;28;19925;-66
2023/04/13 00:36:24;;;;;;;;;;;;;;;6.15;55.00;95567.81;5054243;28;19925;-66
2023/04/13 00:38:53;;;;;;;;;;;;;;;6.10;55.61;95561.06;5054142;28;19925;-66
2023/04/13 00:41:20;;;;;;;;;;;;;;;5.90;55.55;95562.63;5054176;28;19983;-66
2023/04/13 00:43:47;;;;;;;;;;;;;;;5.81;56.98;95566.38;5054218;28;19974;-65
2023/04/13 00:46:16;;;;;;;;;;;;;;;5.75;56.47;95572.59;5054131;28;20345;-66
2023/04/13 00:48:44;;;;;;;;;;;;;;;5.63;57.16;95566.09;5053996;28;19921;-65
2023/04/13 00:51:12;;;;;;;;;;;;;;;5.55;57.38;95565.50;5053847;28;19921;-66
2023/04/13 00:53:40;;;;;;;;;;;;;;;5.43;57.37;95564.16;5053960;28;19925;-66
2023/04/13 00:56:08;;;;;;;;;;;;;;;5.29;57.80;95559.41;5053889;28;19921;-66
2023/04/13 00:58:34;;;;;;;;;;;;;;;5.17;58.66;95560.66;5053808;28;20384;-65
2023/04/13 01:01:02;;;;;;;;;;;;;;;4.98;59.16;95571.63;5053895;28;19939;-65
2023/04/13 01:03:28;;;;;;;;;;;;;;;4.89;58.95;95582.28;5053797;28;20000;-65
2023/04/13 01:06:02;;;;;;;;;;;;;;;4.81;59.02;95585.09;5053679;28;19927;-65
2023/04/13 01:08:33;;;;;;;;;;;;;;;4.76;59.68;95590.41;5053643;28;20275;-66
2023/04/13 01:11:04;;;;;;;;;;;;;;;4.66;59.18;95595.03;5053775;28;20286;-66
2023/04/13 01:13:34;;;;;;;;;;;;;;;4.66;60.34;95591.59;5053370;28;20015;-66
2023/04/13 01:16:03;;;;;;;;;;;;;;;4.55;60.25;95597.09;5053641;28;19924;-66
2023/04/13 01:18:32;;;;;;;;;;;;;;;4.42;60.05;95601.78;5053591;28;19921;-65
2023/04/13 01:21:00;;;;;;;;;;;;;;;4.36;60.45;95607.16;5053496;28;20363;-65
2023/04/13 01:23:35;;;;;;;;;;;;;;;4.33;60.08;95596.88;5053493;28;19927;-66
2023/04/13 01:26:07;;;;;;;;;;;;;;;4.25;60.28;95600.50;5053502;28;19925;-66
2023/04/13 01:28:36;;;;;;;;;;;;;;;4.28;60.92;95600.41;5053449;28;19927;-65
2023/04/13 01:31:04;;;;;;;;;;;;;;;4.19;61.36;95599.84;5053355;28;20290;-66
2023/04/13 01:33:32;;;;;;;;;;;;;;;4.07;60.96;95590.66;5053594;28;19982;-65
2023/04/13 01:35:59;;;;;;;;;;;;;;;3.98;61.34;95589.19;5053310;28;20017;-65
2023/04/13 01:38:26;;;;;;;;;;;;;;;3.87;61.46;95582.56;5053296;28;19924;-65
2023/04/13 01:40:52;;;;;;;;;;;;;;;3.78;61.59;95593.16;5053308;28;20374;-65
2023/04/13 01:43:19;;;;;;;;;;;;;;;3.71;61.75;95591.63;5053458;28;19920;-66
2023/04/13 01:45:50;;;;;;;;;;;;;;;3.61;62.38;95607.34;5053262;28;19921;-65
2023/04/13 01:48:20;;;;;;;;;;;;;;;3.62;62.08;95603.91;5053172;28;19975;-65
2023/04/13 01:50:49;;;;;;;;;;;;;;;3.46;62.50;95602.59;5053257;28;19921;-65
2023/04/13 01:53:19;;;;;;;;;;;;;;;3.44;63.10;95612.09;5053220;28;19924;-65
2023/04/13 01:55:47;;;;;;;;;;;;;;;3.45;62.40;95612.06;5053187;28;19928;-65
2023/04/13 01:58:14;;;;;;;;;;;;;;;3.34;62.24;95617.50;5053168;28;20367;-65
2023/04/13 02:00:41;;;;;;;;;;;;;;;3.22;63.16;95612.63;5055111;28;19972;-65
2023/04/13 02:03:11;;;;;;;;;;;;;;;3.26;63.78;95609.09;5057157;28;19921;-65
2023/04/13 02:05:39;;;;;;;;;;;;;;;3.14;63.36;95605.91;5057042;28;20375;-65
2023/04/13 02:08:06;;;;;;;;;;;;;;;3.16;63.71;95616.19;5056983;28;19921;-65
2023/04/13 02:10:33;;;;;;;;;;;;;;;3.02;63.79;95613.94;5057031;28;20340;-66
2023/04/13 02:13:00;;;;;;;;;;;;;;;2.95;64.14;95628.72;5056766;28;19921;-66
2023/04/13 02:15:27;;;;;;;;;;;;;;;2.82;64.87;95622.13;5056844;28;19921;-65
2023/04/13 02:17:54;;;;;;;;;;;;;;;2.68;64.79;95625.84;5056963;28;19921;-66
2023/04/13 02:20:22;;;;;;;;;;;;;;;2.55;65.31;95619.25;5056860;28;19920;-66
2023/04/13 02:22:49;;;;;;;;;;;;;;;2.51;65.75;95610.75;5056781;28;19920;-65
2023/04/13 02:25:16;;;;;;;;;;;;;;;2.36;66.01;95607.59;5056797;28;19928;-65
2023/04/13 02:27:43;;;;;;;;;;;;;;;2.33;66.12;95612.81;5056675;28;19925;-65
2023/04/13 02:30:10;;;;;;;;;;;;;;;2.35;66.33;95608.47;5056626;28;19921;-65
2023/04/13 02:32:38;;;;;;;;;;;;;;;2.26;66.86;95609.50;5056589;28;19968;-65
2023/04/13 02:35:07;;;;;;;;;;;;;;;2.34;66.64;95611.06;5056565;28;19967;-65
2023/04/13 02:37:36;;;;;;;;;;;;;;;2.41;66.65;95615.25;5056407;28;19920;-65
2023/04/13 02:40:05;;;;;;;;;;;;;;;2.37;66.86;95611.00;5056470;28;19928;-65
2023/04/13 02:42:31;;;;;;;;;;;;;;;2.36;66.88;95605.00;5056428;28;19927;-65
2023/04/13 02:44:58;;;;;;;;;;;;;;;2.28;67.04;95601.72;5056508;28;20319;-65
2023/04/13 02:47:25;;;;;;;;;;;;;;;2.23;67.18;95603.56;5056659;28;19967;-65
2023/04/13 02:49:52;;;;;;;;;;;;;;;2.20;67.57;95601.03;5056159;28;20271;-65
2023/04/13 02:52:20;;;;;;;;;;;;;;;2.17;67.60;95612.28;5056209;28;19921;-65
2023/04/13 02:54:53;;;;;;;;;;;;;;;2.16;67.57;95612.31;5056150;28;19920;-65
2023/04/13 02:57:21;;;;;;;;;;;;;;;2.21;67.25;95616.50;5056207;28;19928;-65
2023/04/13 02:59:48;;;;;;;;;;;;;;;2.23;66.93;95617.28;5056084;28;20374;-66
2023/04/13 03:02:16;;;;;;;;;;;;;;;2.29;67.41;95618.06;5056004;28;19964;-67
2023/04/13 03:04:43;;;;;;;;;;;;;;;2.18;67.76;95615.69;5055944;28;20383;-66
2023/04/13 03:07:10;;;;;;;;;;;;;;;2.07;67.71;95619.34;5055967;28;19925;-66
2023/04/13 03:09:38;;;;;;;;;;;;;;;1.97;68.30;95615.22;5055859;28;20363;-66
2023/04/13 03:12:08;;;;;;;;;;;;;;;1.91;68.53;95617.91;5054684;28;19927;-66
2023/04/13 03:14:35;;;;;;;;;;;;;;;1.83;68.71;95616.31;5055723;28;19920;-66
2023/04/13 03:17:03;;;;;;;;;;;;;;;1.85;68.84;95611.16;5055810;28;20294;-64
2023/04/13 03:19:30;;;;;;;;;;;;;;;1.81;68.83;95609.50;5055816;28;20009;-66
2023/04/13 03:21:57;;;;;;;;;;;;;;;1.79;68.82;95613.81;5055730;28;20003;-66
2023/04/13 03:24:26;;;;;;;;;;;;;;;1.76;68.68;95613.03;5055646;28;20007;-66
2023/04/13 03:26:54;;;;;;;;;;;;;;;1.79;68.87;95625.00;5055569;28;19925;-66
2023/04/13 03:29:22;;;;;;;;;;;;;;;1.84;69.02;95630.09;5055494;28;19928;-65
2023/04/13 03:31:49;;;;;;;;;;;;;;;1.87;69.08;95628.28;5055504;28;19920;-67
2023/04/13 03:34:16;;;;;;;;;;;;;;;1.85;68.82;95644.69;5055512;28;19921;-66
2023/04/13 03:36:43;;;;;;;;;;;;;;;1.76;68.98;95638.81;5055448;28;19924;-66
2023/04/13 03:39:10;;;;;;;;;;;;;;;1.76;69.24;95654.28;5055473;28;20294;-66
2023/04/13 03:41:37;;;;;;;;;;;;;;;1.69;69.44;95641.53;5055339;28;20362;-64
2023/04/13 03:44:04;;;;;;;;;;;;;;;1.69;70.14;95644.09;5055370;28;19927;-65
2023/04/13 03:46:35;;;;;;;;;;;;;;;1.67;70.11;95633.81;5055446;28;20047;-67
2023/04/13 03:49:03;;;;;;;;;;;;;;;1.57;69.57;95637.41;5055372;28;20337;-66
2023/04/13 03:51:30;;;;;;;;;;;;;;;1.50;70.15;95641.81;5055140;28;19921;-64
2023/04/13 03:53:57;;;;;;;;;;;;;;;1.44;70.15;95640.19;5055219;28;20271;-67
2023/04/13 03:56:24;;;;;;;;;;;;;;;1.42;69.98;95652.28;5055023;28;19925;-66
2023/04/13 03:58:51;;;;;;;;;;;;;;;1.40;70.49;95659.16;5055015;28;19921;-64
2023/04/13 04:01:18;;;;;;;;;;;;;;;1.35;70.76;95659.22;5054934;28;19921;-66
2023/04/13 04:03:46;;;;;;;;;;;;;;;1.43;71.10;95666.00;5054915;28;19984;-66
2023/04/13 04:06:13;;;;;;;;;;;;;;;1.50;71.32;95665.00;5054965;28;20020;-67
2023/04/13 04:08:42;;;;;;;;;;;;;;;1.56;71.15;95675.22;5054792;28;19925;-65
2023/04/13 04:11:08;;;;;;;;;;;;;;;1.53;71.00;95674.44;5054781;28;20394;-66
2023/04/13 04:13:35;;;;;;;;;;;;;;;1.56;71.38;95679.56;5054532;28;19925;-64
2023/04/13 04:16:05;;;;;;;;;;;;;;;1.56;71.81;95664.09;5054675;28;19921;-67
2023/04/13 04:18:35;;;;;;;;;;;;;;;1.62;72.34;95675.13;5053397;28;19920;-67
2023/04/13 04:21:05;;;;;;;;;;;;;;;2.04;72.25;95672.75;5054538;28;20319;-64
2023/04/13 04:23:33;;;;;;;;;;;;;;;2.43;70.82;95677.16;5054143;28;20401;-66
2023/04/13 04:26:01;;;;;;;;;;;;;;;2.82;70.09;95687.56;5054487;28;19921;-64
2023/04/13 04:28:29;;;;;;;;;;;;;;;3.46;68.88;95691.34;5054335;28;19978;-65
2023/04/13 04:31:00;;;;;;;;;;;;;;;4.19;66.13;95699.06;5054463;28;19920;-65
2023/04/13 04:33:26;;;;;;;;;;;;;;;4.91;63.47;95692.78;5054267;28;20041;-65
2023/04/13 04:35:53;;;;;;;;;;;;;;;5.66;60.28;95700.09;5054359;28;19928;-65
2023/04/13 04:38:24;;;;;;;;;;;;;;;6.31;57.78;95700.56;5054205;28;19921;-65
2023/04/13 04:40:56;;;;;;;;;;;;;;;6.89;55.15;95701.13;5054192;28;19920;-65
2023/04/13 04:43:24;;;;;;;;;;;;;;;7.56;54.00;95703.00;5054171;28;19928;-65
2023/04/13 04:45:56;;;;;;;;;;;;;;;8.09;53.31;95703.47;5054052;28;19927;-65
2023/04/13 04:48:25;;;;;;;;;;;;;;;8.51;51.43;95706.94;5053995;28;19921;-65
2023/04/13 04:50:52;;;;;;;;;;;;;;;9.01;50.58;95704.81;5054028;28;19970;-65
2023/04/13 04:53:21;;;;;;;;;;;;;;;9.55;49.03;95708.47;5053980;28;20272;-64
2023/04/13 04:55:50;;;;;;;;;;;;;;;10.09;46.34;95715.50;5053972;28;19921;-65
2023/04/13 04:58:21;;;;;;;;;;;;;;;10.70;45.29;95721.19;5053778;28;19946;-65
2023/04/13 05:00:48;;;;;;;;;;;;;;;11.42;46.13;95712.22;5053852;28;19967;-63
2023/04/13 05:03:15;;;;;;;;;;;;;;;11.93;44.11;95720.81;5053738;28;19924;-64
2023/04/13 05:05:46;;;;;;;;;;;;;;;12.39;42.15;95714.72;5053901;28;19928;-64
2023/04/13 05:08:12;;;;;;;;;;;;;;;12.94;41.23;95714.16;5053826;28;19943;-65
2023/04/13 05:10:44;;;;;;;;;;;;;;;13.34;41.75;95722.19;5053646;28;19921;-64
2023/04/13 05:13:12;;;;;;;;;;;;;;;13.78;39.54;95724.75;5053460;28;20378;-64
2023/04/13 05:15:39;;;;;;;;;;;;;;;14.10;38.27;95728.88;5053598;28;19959;-64
2023/04/13 05:18:06;;;;;;;;;;;;;;;14.53;39.69;95723.41;5053527;28;20393;-65
2023/04/13 05:20:34;;;;;;;;;;;;;;;15.05;40.66;95722.63;5053594;28;19920;-64
2023/04/13 05:23:00;;;;;;;;;;;;;;;15.61;38.88;95720.53;5053482;28;19921;-64
2023/04/13 05:25:27;;;;;;;;;;;;;;;15.87;35.96;95710.72;5053466;28;20341;-64
2023/04/13 05:27:55;;;;;;;;;;;;;;;16.38;35.17;95711.47;5053359;28;19931;-64
2023/04/13 05:30:23;;;;;;;;;;;;;;;16.92;33.73;95711.84;5053337;28;19920;-64
2023/04/13 05:32:51;;;;;;;;;;;;;;;17.27;31.60;95717.16;5053366;28;20012;-65
2023/04/13 05:35:17;;;;;;;;;;;;;;;17.46;31.49;95716.56;5052668;28;19921;-65
2023/04/13 05:37:45;;;;;;;;;;;;;;;17.73;31.34;95711.88;5053349;28;20337;-65
2023/04/13 05:40:13;;;;;;;;;;;;;;;18.01;32.88;95707.81;5053296;28;19925;-64
2023/04/13 05:42:42;;;;;;;;;;;;;;;18.48;32.36;95717.28;5053133;28;19921;-64
2023/04/13 05:45:09;;;;;;;;;;;;;;;18.76;30.99;95725.59;5053241;28;19931;-64
2023/04/13 05:47:38;;;;;;;;;;;;;;;19.00;30.23;95719.16;5053183;28;19975;-64
2023/04/13 05:50:07;;;;;;;;;;;;;;;18.91;32.26;95719.94;5053138;28;20383;-64
2023/04/13 05:52:34;;;;;;;;;;;;;;;18.75;33.37;95712.47;5053186;28;20521;-64
2023/04/13 05:55:02;;;;;;;;;;;;;;;18.67;33.89;95721.88;5053259;28;20275;-64
2023/04/13 05:57:29;;;;;;;;;;;;;;;18.63;34.00;95728.41;5053143;28;19922;-64
2023/04/13 05:59:56;;;;;;;;;;;;;;;18.61;33.54;95730.34;5053028;28;19966;-65
2023/04/13 06:02:25;;;;;;;;;;;;;;;18.62;34.29;95731.19;5053049;28;19979;-64
2023/04/13 06:04:55;;;;;;;;;;;;;;;18.60;34.36;95727.84;5052963;28;20011;-64
2023/04/13 06:07:22;;;;;;;;;;;;;;;18.69;34.76;95733.19;5053015;28;20035;-64
2023/04/13 06:09:49;;;;;;;;;;;;;;;18.53;33.12;95738.94;5052936;28;20374;-64
2023/04/13 06:12:17;;;;;;;;;;;;;;;18.38;31.85;95733.09;5053078;28;20429;-64
2023/04/13 06:14:44;;;;;;;;;;;;;;;18.15;30.48;95735.00;5052726;28;20011;-65
2023/04/13 06:17:12;;;;;;;;;;;;;;;18.54;29.68;95742.41;5052937;28;19928;-65
2023/04/13 06:19:38;;;;;;;;;;;;;;;18.84;27.53;95743.44;5052956;28;19920;-64
2023/04/13 06:22:07;;;;;;;;;;;;;;;19.08;27.84;95749.50;5052901;28;19980;-64
2023/04/13 06:24:34;;;;;;;;;;;;;;;19.27;27.65;95757.53;5052842;28;19927;-65
2023/04/13 06:27:03;;;;;;;;;;;;;;;19.17;27.42;95757.50;5052978;28;19972;-64
2023/04/13 06:29:30;;;;;;;;;;;;;;;19.43;27.85;95756.22;5052791;28;20374;-65
2023/04/13 06:31:57;;;;;;;;;;;;;;;19.54;25.63;95752.66;5052822;28;19920;-65
2023/04/13 06:34:24;;;;;;;;;;;;;;;19.34;26.77;95752.56;5052793;28;19928;-65
2023/04/13 06:36:51;;;;;;;;;;;;;;;19.47;25.66;95751.50;5052946;28;19921;-65
2023/04/13 06:39:20;;;;;;;;;;;;;;;19.89;25.30;95748.69;5052899;28;19925;-63
2023/04/13 06:41:47;;;;;;;;;;;;;;;20.38;25.51;95753.25;5052745;28;19963;-65
2023/04/13 06:44:16;;;;;;;;;;;;;;;20.75;25.06;95750.88;5052726;28;20019;-64
2023/04/13 06:46:48;;;;;;;;;;;;;;;20.01;25.43;95748.59;5054384;28;19920;-66
2023/04/13 06:49:15;;;;;;;;;;;;;;;20.11;25.74;95748.63;5056200;28;19921;-65
2023/04/13 06:51:43;;;;;;;;;;;;;;;20.31;23.45;95758.31;5056242;28;20378;-65
2023/04/13 06:54:12;;;;;;;;;;;;;;;20.60;25.30;95759.28;5056188;28;20011;-66
2023/04/13 06:56:41;;;;;;;;;;;;;;;20.94;23.50;95750.91;5056126;28;19975;-64
2023/04/13 06:59:08;;;;;;;;;;;;;;;20.93;24.85;95753.69;5056105;28;19921;-65
2023/04/13 07:01:39;;;;;;;;;;;;;;;20.88;27.42;95746.13;5056016;28;20286;-65
2023/04/13 07:04:07;;;;;;;;;;;;;;;20.94;24.17;95752.72;5055925;28;19924;-64
2023/04/13 07:06:35;;;;;;;;;;;;;;;20.91;24.53;95755.66;5055942;28;19927;-65
2023/04/13 07:09:02;;;;;;;;;;;;;;;20.81;23.68;95756.50;5055877;28;19970;-65
2023/04/13 07:11:30;;;;;;;;;;;;;;;21.03;24.17;95761.66;5055839;28;19920;-65
2023/04/13 07:13:58;;;;;;;;;;;;;;;21.15;24.17;95757.84;5055596;28;20014;-65
2023/04/13 07:16:25;;;;;;;;;;;;;;;21.37;24.83;95768.28;5055807;28;20374;-65
2023/04/13 07:18:55;;;;;;;;;;;;;;;21.45;23.95;95755.09;5055707;28;20363;-65
2023/04/13 07:21:22;;;;;;;;;;;;;;;21.70;24.32;95756.25;5055692;28;20393;-65
2023/04/13 07:23:49;;;;;;;;;;;;;;;21.10;24.26;95762.75;5055621;28;19975;-65
2023/04/13 07:26:17;;;;;;;;;;;;;;;20.29;24.17;95760.25;5055530;28;19925;-65
2023/04/13 07:28:44;;;;;;;;;;;;;;;20.13;23.95;95755.47;5055508;28;19979;-65
2023/04/13 07:31:12;;;;;;;;;;;;;;;20.02;24.59;95764.38;5055350;28;19920;-65
2023/04/13 07:33:39;;;;;;;;;;;;;;;19.82;25.10;95755.53;5055364;28;20011;-65
2023/04/13 07:36:07;;;;;;;;;;;;;;;20.06;24.28;95754.34;5055254;28;20279;-65
2023/04/13 07:38:34;;;;;;;;;;;;;;;20.56;23.81;95749.94;5055299;28;19943;-65
2023/04/13 07:41:07;;;;;;;;;;;;;;;20.93;22.84;95743.06;5055266;28;19948;-65
2023/04/13 07:43:34;;;;;;;;;;;;;;;20.94;25.37;95739.41;5055299;28;19927;-65
2023/04/13 07:46:01;;;;;;;;;;;;;;;21.02;24.48;95736.06;5055306;28;19925;-65
2023/04/13 07:48:30;;;;;;;;;;;;;;;20.79;24.94;95734.53;5055216;28;20358;-65
2023/04/13 07:51:00;;;;;;;;;;;;;;;20.60;25.61;95738.03;5055189;28;19921;-65
2023/04/13 07:53:27;;;;;;;;;;;;;;;20.44;25.01;95741.28;5055064;28;20003;-65
2023/04/13 07:55:55;;;;;;;;;;;;;;;20.76;23.83;95742.78;5054900;28;20418;-65
2023/04/13 07:58:24;;;;;;;;;;;;;;;20.61;25.00;95742.38;5054588;28;20011;-65
2023/04/13 08:00:55;;;;;;;;;;;;;;;20.50;23.72;95738.03;5054854;28;19921;-65
2023/04/13 08:03:23;;;;;;;;;;;;;;;20.77;24.19;95731.16;5054868;28;20281;-65
2023/04/13 08:05:53;;;;;;;;;;;;;;;21.00;24.91;95736.19;5054823;28;19920;-65
2023/04/13 08:08:25;;;;;;;;;;;;;;;20.98;25.09;95735.50;5054750;28;20497;-65
2023/04/13 08:10:57;;;;;;;;;;;;;;;20.68;23.90;95735.50;5054554;28;19921;-65
2023/04/13 08:13:25;;;;;;;;;;;;;;;20.53;27.85;95731.63;5054385;28;19924;-65
2023/04/13 08:15:56;;;;;;;;;;;;;;;20.24;28.06;95724.47;5054641;28;19921;-65
2023/04/13 08:18:23;;;;;;;;;;;;;;;19.83;30.09;95730.66;5054406;28;19921;-65
2023/04/13 08:20:55;;;;;;;;;;;;;;;19.96;27.93;95730.44;5054540;28;19928;-66
2023/04/13 08:23:24;;;;;;;;;;;;;;;20.10;26.24;95725.75;5054391;28;20015;-66
2023/04/13 08:25:52;;;;;;;;;;;;;;;20.05;28.78;95721.66;5054353;28;20367;-65
2023/04/13 08:28:20;;;;;;;;;;;;;;;20.28;27.59;95720.56;5054217;28;20003;-65
2023/04/13 08:30:47;;;;;;;;;;;;;;;20.10;28.56;95721.25;5054205;28;20006;-65
2023/04/13 08:33:13;;;;;;;;;;;;;;;19.81;27.30;95728.16;5054254;28;19927;-65
2023/04/13 08:35:43;;;;;;;;;;;;;;;19.74;27.88;95720.88;5054252;28;19995;-65
2023/04/13 08:38:12;;;;;;;;;;;;;;;19.73;26.15;95721.84;5054158;28;20329;-65
2023/04/13 08:40:40;;;;;;;;;;;;;;;19.98;27.67;95717.03;5054189;28;19928;-65
2023/04/13 08:43:08;;;;;;;;;;;;;;;20.30;26.89;95721.28;5054202;28;20325;-65
2023/04/13 08:45:36;;;;;;;;;;;;;;;20.36;30.28;95718.06;5054039;28;19979;-66
2023/04/13 08:48:03;;;;;;;;;;;;;;;20.32;28.61;95721.97;5054071;28;20354;-65
2023/04/13 08:50:30;;;;;;;;;;;;;;;20.41;28.50;95723.78;5053851;28;19982;-66
2023/04/13 08:52:57;;;;;;;;;;;;;;;20.45;29.30;95714.56;5053922;28;20082;-65
2023/04/13 08:55:28;;;;;;;;;;;;;;;20.13;29.51;95720.13;5053857;28;20401;-65
2023/04/13 08:58:00;;;;;;;;;;;;;;;20.28;27.80;95715.25;5053795;28;20008;-65
2023/04/13 09:00:28;;;;;;;;;;;;;;;20.25;26.76;95710.22;5053784;28;20027;-65
2023/04/13 09:02:59;;;;;;;;;;;;;;;20.20;26.50;95711.47;5053780;28;19925;-65
2023/04/13 09:05:28;;;;;;;;;;;;;;;20.36;28.61;95710.09;5054024;28;20260;-65
2023/04/13 09:07:57;;;;;;;;;;;;;;;20.63;28.17;95702.38;5053583;28;20011;-65
2023/04/13 09:10:26;;;;;;;;;;;;;;;20.99;26.51;95707.09;5052658;28;20370;-65
2023/04/13 09:12:54;;;;;;;;;;;;;;;21.18;26.94;95709.72;5053220;28;19920;-65
2023/04/13 09:15:23;;;;;;;;;;;;;;;21.28;26.58;95708.84;5053573;28;19920;-66
2023/04/13 09:17:51;;;;;;;;;;;;;;;21.39;25.09;95713.13;5053461;28;20349;-66
2023/04/13 09:20:20;;;;;;;;;;;;;;;21.01;24.91;95713.13;5053438;28;19932;-65
2023/04/13 09:22:47;;;;;;;;;;;;;;;20.69;26.38;95718.63;5052169;28;19976;-65
2023/04/13 09:25:23;;;;;;;;;;;;;;;20.89;25.13;95715.91;5053381;28;19972;-65
2023/04/13 09:27:52;;;;;;;;;;;;;;;20.70;26.21;95720.28;5053065;28;20378;-65
2023/04/13 09:30:20;;;;;;;;;;;;;;;20.43;30.67;95724.47;5053314;28;19927;-65
2023/04/13 09:32:47;;;;;;;;;;;;;;;20.50;23.96;95721.28;5053270;28;19921;-65
2023/04/13 09:35:14;;;;;;;;;;;;;;;19.99;26.46;95718.69;5053420;28;19920;-65
2023/04/13 09:37:42;;;;;;;;;;;;;;;19.55;28.34;95715.38;5053421;28;19927;-65
2023/04/13 09:40:10;;;;;;;;;;;;;;;19.34;25.86;95707.50;5053333;28;19924;-65
2023/04/13 09:42:38;;;;;;;;;;;;;;;19.31;28.43;95708.59;5053262;28;20283;-65
2023/04/13 09:45:07;;;;;;;;;;;;;;;19.23;28.50;95707.59;5053317;28;20390;-65
2023/04/13 09:47:39;;;;;;;;;;;;;;;19.58;27.49;95703.66;5053193;28;19920;-65
2023/04/13 09:50:16;;;;;;;;;;;;;;;19.70;28.69;95709.69;5053268;28;19928;-65
2023/04/13 09:52:43;;;;;;;;;;;;;;;19.52;26.16;95710.34;5053237;28;20359;-65
2023/04/13 09:55:15;;;;;;;;;;;;;;;19.48;26.98;95711.59;5053226;28;19925;-65
2023/04/13 09:57:42;;;;;;;;;;;;;;;19.66;26.05;95714.41;5053350;28;19921;-65
2023/04/13 10:00:15;;;;;;;;;;;;;;;19.78;25.52;95717.81;5053247;28;19974;-65
2023/04/13 10:02:42;;;;;;;;;;;;;;;19.65;28.80;95706.59;5053199;28;19924;-66
2023/04/13 10:05:10;;;;;;;;;;;;;;;19.69;26.45;95714.16;5053196;28;19920;-65
2023/04/13 10:07:38;;;;;;;;;;;;;;;19.58;26.73;95711.63;5053169;28;19929;-68
2023/04/13 10:10:06;;;;;;;;;;;;;;;19.39;26.79;95699.13;5053067;28;19921;-69
2023/04/13 10:12:36;;;;;;;;;;;;;;;19.65;28.96;95701.28;5053141;28;20328;-67
2023/04/13 10:15:15;;;;;;;;;;;;;;;19.94;27.16;95706.69;5052793;28;19924;-69
2023/04/13 10:17:54;;;;;;;;;;;;;;;19.51;27.93;95707.84;5053016;28;19924;-65
2023/04/13 10:20:22;;;;;;;;;;;;;;;19.29;26.68;95691.13;5052997;28;19920;-65
2023/04/13 10:22:50;;;;;;;;;;;;;;;19.64;27.22;95694.31;5056695;28;19932;-65
2023/04/13 10:25:17;;;;;;;;;;;;;;;19.92;27.60;95681.25;5056855;28;19921;-65
2023/04/13 10:27:44;;;;;;;;;;;;;;;19.94;26.20;95682.81;5056763;28;19920;-65
2023/04/13 10:30:15;;;;;;;;;;;;;;;19.99;27.44;95678.88;5056843;28;19974;-65
2023/04/13 10:32:42;;;;;;;;;;;;;;;20.08;25.58;95683.41;5056661;28;19920;-65
2023/04/13 10:35:14;;;;;;;;;;;;;;;19.90;26.45;95689.34;5056618;28;19925;-65
2023/04/13 10:37:44;;;;;;;;;;;;;;;19.77;23.73;95686.09;5056531;28;20008;-65
2023/04/13 10:40:13;;;;;;;;;;;;;;;19.75;26.73;95688.06;5056493;28;19925;-66
2023/04/13 10:42:45;;;;;;;;;;;;;;;19.73;24.77;95690.00;5056484;28;19925;-66
2023/04/13 10:45:19;;;;;;;;;;;;;;;19.78;24.66;95685.97;5056436;28;19924;-66
2023/04/13 10:47:46;;;;;;;;;;;;;;;19.86;27.10;95684.47;5056397;28;20011;-65
2023/04/13 10:50:19;;;;;;;;;;;;;;;19.72;27.12;95678.59;5056253;28;19921;-65
2023/04/13 10:52:59;;;;;;;;;;;;;;;19.65;27.23;95672.97;5056259;28;19975;-66
2023/04/13 10:55:27;;;;;;;;;;;;;;;20.04;26.25;95672.22;5056216;28;19978;-66
2023/04/13 10:57:55;;;;;;;;;;;;;;;19.83;25.58;95673.16;5056058;28;19924;-65
2023/04/13 11:00:23;;;;;;;;;;;;;;;19.83;26.11;95675.81;5056110;28;19925;-65
2023/04/13 11:02:50;;;;;;;;;;;;;;;19.93;25.07;95670.50;5056138;28;20398;-65
2023/04/13 11:05:20;;;;;;;;;;;;;;;19.93;22.90;95670.50;5055946;28;19924;-65
2023/04/13 11:07:47;;;;;;;;;;;;;;;19.81;25.34;95659.16;5055968;28;19935;-65
2023/04/13 11:10:15;;;;;;;;;;;;;;;19.77;25.44;95660.41;5056001;28;19925;-65
2023/04/13 11:12:49;;;;;;;;;;;;;;;19.98;26.76;95662.13;5055663;28;19921;-65
2023/04/13 11:15:19;;;;;;;;;;;;;;;20.19;24.70;95661.19;5055945;28;19921;-65
2023/04/13 11:17:50;;;;;;;;;;;;;;;19.96;24.09;95656.13;5055855;28;20281;-65
2023/04/13 11:20:18;;;;;;;;;;;;;;;19.95;20.95;95652.63;5055962;28;20011;-65
2023/04/13 11:22:45;;;;;;;;;;;;;;;19.87;23.09;95654.31;5055708;28;20362;-65
2023/04/13 11:25:12;;;;;;;;;;;;;;;19.72;22.28;95645.91;5055678;28;19921;-65
2023/04/13 11:27:39;;;;;;;;;;;;;;;19.73;25.96;95658.19;5055735;28;19921;-65
2023/04/13 11:30:07;;;;;;;;;;;;;;;19.80;23.40;95651.34;5055727;28;20004;-65
2023/04/13 11:32:35;;;;;;;;;;;;;;;20.03;23.63;95643.16;5054518;28;19921;-66
2023/04/13 11:35:06;;;;;;;;;;;;;;;20.13;22.75;95656.41;5055542;28;19921;-65
2023/04/13 11:37:37;;;;;;;;;;;;;;;20.31;23.73;95644.13;5055466;28;20430;-65
2023/04/13 11:40:11;;;;;;;;;;;;;;;20.41;23.17;95644.13;5055397;28;19920;-66
2023/04/13 11:42:39;;;;;;;;;;;;;;;20.48;23.52;95648.84;5055296;28;19920;-65
2023/04/13 11:45:07;;;;;;;;;;;;;;;20.76;22.71;95652.44;5055344;28;19921;-66
2023/04/13 11:47:34;;;;;;;;;;;;;;;20.73;21.25;95652.72;5055137;28;19927;-65
2023/04/13 11:50:02;;;;;;;;;;;;;;;20.68;20.46;95650.50;5055189;28;20007;-65
2023/04/13 11:52:29;;;;;;;;;;;;;;;20.38;23.41;95648.88;5055061;28;20334;-65
2023/04/13 11:54:57;;;;;;;;;;;;;;;20.28;24.41;95647.06;5055185;28;19925;-65
2023/04/13 11:57:24;;;;;;;;;;;;;;;20.25;24.03;95643.84;5055090;28;19920;-65
2023/04/13 11:59:52;;;;;;;;;;;;;;;20.29;20.25;95645.25;5054992;28;20298;-65
2023/04/13 12:02:24;;;;;;;;;;;;;;;20.42;21.52;95647.63;5055134;28;19928;-65
2023/04/13 12:04:52;;;;;;;;;;;;;;;20.17;21.51;95634.78;5054983;28;19974;-65
2023/04/13 12:07:19;;;;;;;;;;;;;;;19.96;22.52;95640.22;5054815;28;19963;-65
2023/04/13 12:09:47;;;;;;;;;;;;;;;19.86;22.10;95640.19;5054795;28;20382;-65
2023/04/13 12:12:19;;;;;;;;;;;;;;;19.93;24.10;95627.22;5054730;28;19974;-65
2023/04/13 12:14:56;;;;;;;;;;;;;;;20.19;20.73;95630.16;5054509;28;19920;-65
2023/04/13 12:17:23;;;;;;;;;;;;;;;20.45;22.64;95626.94;5054654;28;19927;-65
2023/04/13 12:19:54;;;;;;;;;;;;;;;20.52;22.08;95621.88;5054643;28;19920;-65
2023/04/13 12:22:22;;;;;;;;;;;;;;;20.58;21.39;95621.31;5054555;28;19933;-65
2023/04/13 12:24:48;;;;;;;;;;;;;;;20.67;20.63;95619.59;5054564;28;19924;-65
2023/04/13 12:27:16;;;;;;;;;;;;;;;20.69;21.94;95619.47;5054717;28;19924;-65
2023/04/13 12:29:44;;;;;;;;;;;;;;;20.68;20.17;95618.63;5054475;28;19925;-65
2023/04/13 12:32:12;;;;;;;;;;;;;;;20.44;19.82;95613.81;5054407;28;20382;-65
2023/04/13 12:34:40;;;;;;;;;;;;;;;20.30;21.82;95613.25;5054401;28;19928;-65
2023/04/13 12:37:07;;;;;;;;;;;;;;;20.19;19.67;95614.25;5054326;28;19925;-65
2023/04/13 12:39:33;;;;;;;;;;;;;;;20.28;22.00;95611.72;5054257;28;19920;-65
2023/04/13 12:42:01;;;;;;;;;;;;;;;20.26;20.34;95609.19;5054270;28;19920;-65
2023/04/13 12:44:28;;;;;;;;;;;;;;;20.27;22.94;95608.22;5054012;28;20015;-65
2023/04/13 12:46:56;;;;;;;;;;;;;;;20.25;23.26;95606.69;5054172;28;19983;-65
2023/04/13 12:49:23;;;;;;;;;;;;;;;20.36;23.20;95609.19;5054034;28;19928;-65
2023/04/13 12:51:49;;;;;;;;;;;;;;;20.36;23.44;95614.50;5054111;28;19925;-65
2023/04/13 12:54:16;;;;;;;;;;;;;;;20.40;22.36;95610.59;5054000;28;19927;-65
2023/04/13 12:56:43;;;;;;;;;;;;;;;20.39;22.49;95610.72;5053972;28;20449;-65